Time;durP1;ratioP1;P1;durP2;ratioP2;P2;SDS_P1;SDS_P2;PMS_P1;PMS_P2;Temp;Humidity;BMP_temperature;BMP_pressure;BME280_temperature;BME280_humidity;BME280_pressure;Samples;Min_cycle;Max_cycle;Signal;HPM_P1;HPM_P2
2023/10/08 00:00:49;;;;;;;12.70;5.57;;;;;;;9.66;100.00;97816.31;5087080;28;20044;-74
2023/10/08 00:03:17;;;;;;;11.55;5.68;;;;;;;9.76;100.00;97823.75;5064862;28;20106;-73
2023/10/08 00:05:43;;;;;;;17.08;6.70;;;;;;;9.79;100.00;97820.06;5051640;28;20512;-74
2023/10/08 00:08:09;;;;;;;15.30;5.65;;;;;;;9.78;100.00;97818.34;5051946;28;20020;-74
2023/10/08 00:10:37;;;;;;;11.88;6.30;;;;;;;9.69;100.00;97814.34;5093443;28;20023;-75
2023/10/08 00:13:04;;;;;;;14.80;6.28;;;;;;;9.73;100.00;97817.72;5064606;28;20058;-74
2023/10/08 00:15:32;;;;;;;16.38;6.22;;;;;;;9.70;100.00;97807.19;5063493;28;20020;-74
2023/10/08 00:17:58;;;;;;;12.18;6.35;;;;;;;9.75;100.00;97814.00;5063461;28;20059;-74
2023/10/08 00:20:35;;;;;;;11.95;6.00;;;;;;;9.72;100.00;97806.16;5071610;28;20480;-74
2023/10/08 00:23:03;;;;;;;12.57;6.18;;;;;;;9.81;100.00;97810.19;5065028;28;20024;-74
2023/10/08 00:25:30;;;;;;;14.23;6.05;;;;;;;9.70;100.00;97800.06;5071580;28;20150;-75
2023/10/08 00:27:56;;;;;;;11.73;5.80;;;;;;;9.75;100.00;97805.16;5071606;28;20046;-74
2023/10/08 00:30:22;;;;;;;9.60;5.60;;;;;;;9.75;100.00;97805.16;5071538;28;20078;-74
2023/10/08 00:32:47;;;;;;;12.55;5.70;;;;;;;9.69;100.00;97795.66;5071246;28;20035;-73
2023/10/08 00:35:13;;;;;;;12.82;6.28;;;;;;;9.78;100.00;97797.00;5071533;28;20025;-74
2023/10/08 00:37:42;;;;;;;13.95;6.18;;;;;;;9.70;100.00;97796.53;5072401;28;20436;-74
2023/10/08 00:40:12;;;;;;;11.75;5.68;;;;;;;9.77;100.00;97808.59;5072395;28;20028;-74
2023/10/08 00:42:45;;;;;;;15.18;6.53;;;;;;;9.67;100.00;97794.88;5072347;28;20035;-74
2023/10/08 00:45:14;;;;;;;9.80;6.05;;;;;;;9.63;100.00;97795.13;5072724;28;20024;-75
2023/10/08 00:47:43;;;;;;;10.95;6.45;;;;;;;9.53;100.00;97800.13;5071054;28;20024;-74
2023/10/08 00:50:20;;;;;;;15.85;5.97;;;;;;;9.53;100.00;97788.56;5071062;28;20441;-75
2023/10/08 00:53:01;;;;;;;18.15;6.53;;;;;;;9.49;100.00;97787.00;5086749;28;20032;-75
2023/10/08 00:55:32;;;;;;;18.13;7.30;;;;;;;9.43;100.00;97790.88;5071287;28;20032;-74
2023/10/08 00:58:01;;;;;;;13.45;5.85;;;;;;;9.42;100.00;97798.94;5070759;28;20531;-75
2023/10/08 01:00:37;;;;;;;15.20;6.05;;;;;;;9.30;100.00;97787.13;5087174;28;20422;-75
2023/10/08 01:03:14;;;;;;;11.77;5.90;;;;;;;9.22;100.00;97798.22;5071061;28;20404;-75
2023/10/08 01:05:47;;;;;;;13.15;5.75;;;;;;;9.30;100.00;97791.59;5070784;28;20103;-74
2023/10/08 01:11:46;;;;;;;15.00;5.63;;;;;;;9.13;100.00;97788.03;5066275;28;20039;-75
2023/10/08 01:14:11;;;;;;;10.95;5.40;;;;;;;8.90;100.00;97788.34;5070429;28;20116;-75
2023/10/08 01:16:39;;;;;;;10.40;5.20;;;;;;;8.91;100.00;97779.41;5071617;28;20112;-74
2023/10/08 01:19:10;;;;;;;13.50;6.18;;;;;;;8.92;100.00;97782.94;5070268;28;20052;-74
2023/10/08 01:21:39;;;;;;;15.77;5.28;;;;;;;8.97;100.00;97786.22;5071328;28;20403;-74
2023/10/08 01:24:06;;;;;;;11.75;5.40;;;;;;;9.02;100.00;97800.19;5071455;28;20317;-74
2023/10/08 01:26:39;;;;;;;12.45;4.80;;;;;;;8.89;100.00;97791.94;5070254;28;20085;-74
2023/10/08 01:29:09;;;;;;;9.60;5.03;;;;;;;8.88;100.00;97784.91;5071489;28;20095;-74
2023/10/08 01:31:36;;;;;;;14.57;5.57;;;;;;;8.80;100.00;97771.06;5070122;28;20048;-74
2023/10/08 01:34:04;;;;;;;12.70;5.72;;;;;;;8.87;100.00;97788.50;5071183;28;20621;-74
2023/10/08 01:36:31;;;;;;;10.95;5.95;;;;;;;8.76;100.00;97776.66;5069995;28;20034;-73
2023/10/08 01:38:57;;;;;;;10.73;5.40;;;;;;;8.81;100.00;97778.16;5070061;28;20040;-73
2023/10/08 01:41:30;;;;;;;10.50;5.55;;;;;;;8.76;100.00;97774.88;5069896;28;20480;-73
2023/10/08 01:43:56;;;;;;;13.90;5.78;;;;;;;8.82;100.00;97795.88;5070085;28;20472;-74
2023/10/08 01:46:22;;;;;;;11.57;5.90;;;;;;;8.82;100.00;97779.88;5070956;28;20032;-75
2023/10/08 01:48:53;;;;;;;15.35;5.90;;;;;;;8.75;100.00;97767.78;5086796;28;20035;-75
2023/10/08 01:54:04;;;;;;;14.85;6.32;;;;;;;8.67;100.00;97770.84;5067938;28;20503;-75
2023/10/08 01:56:29;;;;;;;13.18;6.22;;;;;;;8.74;100.00;97766.06;5070070;28;20027;-75
2023/10/08 01:58:55;;;;;;;11.25;5.93;;;;;;;8.77;100.00;97771.22;5070566;28;20446;-74
2023/10/08 02:01:21;;;;;;;14.18;5.03;;;;;;;8.69;100.00;97765.44;5069563;28;20105;-74
2023/10/08 02:03:47;;;;;;;14.00;6.18;;;;;;;8.57;100.00;97763.41;5069636;28;20135;-75
2023/10/08 02:06:12;;;;;;;11.32;5.57;;;;;;;8.54;100.00;97760.88;5069638;28;20103;-74
2023/10/08 02:08:38;;;;;;;11.95;6.05;;;;;;;8.59;100.00;97773.03;5086148;28;20051;-74
2023/10/08 02:11:04;;;;;;;16.92;6.15;;;;;;;8.59;100.00;97767.69;5069429;28;20491;-75
2023/10/08 02:13:30;;;;;;;11.82;5.63;;;;;;;8.60;100.00;97765.91;5069619;28;20515;-75
2023/10/08 02:15:56;;;;;;;12.95;6.05;;;;;;;8.66;100.00;97768.25;5070538;28;20025;-75
2023/10/08 02:18:25;;;;;;;16.55;6.25;;;;;;;8.59;100.00;97773.03;5070565;28;20072;-74
2023/10/08 02:20:51;;;;;;;14.15;5.68;;;;;;;8.58;100.00;97765.13;5069395;28;20439;-74
2023/10/08 02:23:18;;;;;;;15.30;5.78;;;;;;;8.55;100.00;97760.78;5069505;28;20025;-74
2023/10/08 02:25:44;;;;;;;11.35;5.53;;;;;;;8.52;100.00;97760.94;5069451;28;20475;-74
2023/10/08 02:28:12;;;;;;;14.75;6.20;;;;;;;8.49;100.00;97766.44;5070162;28;20553;-75
2023/10/08 02:30:38;;;;;;;14.18;6.05;;;;;;;8.43;100.00;97763.25;5069503;28;20020;-74
2023/10/08 02:33:13;;;;;;;11.35;5.50;;;;;;;8.50;100.00;97764.63;5069129;28;20454;-75
2023/10/08 02:35:42;;;;;;;13.05;5.97;;;;;;;8.46;100.00;97757.75;5070573;28;20074;-74
2023/10/08 02:38:09;;;;;;;12.82;5.50;;;;;;;8.46;100.00;97755.09;5069289;28;20058;-75
2023/10/08 02:40:37;;;;;;;15.27;5.32;;;;;;;8.45;100.00;97759.56;5069227;28;20465;-75
2023/10/08 02:43:06;;;;;;;9.55;5.40;;;;;;;8.54;100.00;97755.56;5068916;28;20036;-74
2023/10/08 02:45:31;;;;;;;11.52;5.43;;;;;;;8.63;100.00;97752.41;5070360;28;20113;-75
2023/10/08 02:47:57;;;;;;;11.18;5.40;;;;;;;8.61;100.00;97754.31;5068947;28;20107;-74
2023/10/08 02:50:23;;;;;;;10.90;5.47;;;;;;;8.61;100.00;97770.31;5070474;28;20035;-75
2023/10/08 02:52:52;;;;;;;14.20;5.68;;;;;;;8.65;100.00;97745.19;5069425;28;20189;-75
2023/10/08 02:55:24;;;;;;;15.30;5.28;;;;;;;8.50;100.00;97745.97;5069179;28;20032;-75
2023/10/08 02:57:50;;;;;;;15.60;5.43;;;;;;;8.46;100.00;97739.94;5069284;28;20040;-75
2023/10/08 03:00:20;;;;;;;13.70;6.10;;;;;;;8.46;100.00;97742.59;5085812;28;20032;-74
2023/10/08 03:02:46;;;;;;;14.05;6.22;;;;;;;8.57;100.00;97747.41;5069649;28;20031;-74
2023/10/08 03:05:16;;;;;;;16.00;6.03;;;;;;;8.37;100.00;97737.72;5070187;28;20028;-74
2023/10/08 03:07:41;;;;;;;14.40;5.97;;;;;;;8.38;100.00;97735.94;5052870;28;20055;-74
2023/10/08 03:10:17;;;;;;;9.57;5.65;;;;;;;8.35;100.00;97738.75;5070052;28;20032;-74
2023/10/08 03:12:43;;;;;;;15.70;7.22;;;;;;;8.24;100.00;97733.06;5070453;28;20028;-75
2023/10/08 03:15:28;;;;;;;17.35;6.65;;;;;;;8.14;100.00;97728.19;5068839;28;20029;-75
2023/10/08 03:17:57;;;;;;;13.40;7.32;;;;;;;8.11;100.00;97744.34;5067370;28;20557;-75
2023/10/08 03:20:38;;;;;;;16.52;6.80;;;;;;;8.03;100.00;97740.28;5068986;28;20028;-75
2023/10/08 03:23:23;;;;;;;17.52;6.80;;;;;;;7.95;100.00;97747.81;5068986;28;20024;-75
2023/10/08 03:26:01;;;;;;;16.73;6.80;;;;;;;7.83;100.00;97737.75;5069227;28;20480;-74
2023/10/08 03:28:28;;;;;;;17.13;7.10;;;;;;;7.75;100.00;97737.25;5070120;28;20068;-74
2023/10/08 03:31:03;;;;;;;16.88;7.07;;;;;;;7.66;100.00;97738.53;5051913;28;20117;-73
2023/10/08 03:33:37;;;;;;;16.65;7.07;;;;;;;7.60;100.00;97730.84;5069125;28;20103;-74
2023/10/08 03:36:22;;;;;;;19.80;6.82;;;;;;;7.59;100.00;97729.13;5068687;28;20553;-73
2023/10/08 03:38:51;;;;;;;11.30;5.93;;;;;;;7.52;100.00;97741.00;5082309;28;20109;-74
2023/10/08 03:41:29;;;;;;;12.32;6.38;;;;;;;7.42;100.00;97734.38;5072130;28;20116;-75
2023/10/08 03:44:06;;;;;;;14.48;6.57;;;;;;;7.31;100.00;97726.03;5056213;28;20063;-74
2023/10/08 03:46:39;;;;;;;15.18;6.32;;;;;;;7.29;100.00;97727.91;5072355;28;20059;-74
2023/10/08 03:49:15;;;;;;;15.88;6.82;;;;;;;7.48;100.00;97731.41;5072305;28;20099;-74
2023/10/08 03:51:44;;;;;;;19.67;7.25;;;;;;;7.47;100.00;97729.72;5072289;28;20115;-75
2023/10/08 03:54:15;;;;;;;13.35;6.57;;;;;;;7.44;100.00;97736.06;5073358;28;20024;-75
2023/10/08 03:56:51;;;;;;;14.30;6.47;;;;;;;7.43;100.00;97738.75;5072232;28;20059;-74
2023/10/08 03:59:30;;;;;;;20.23;8.15;;;;;;;7.54;100.00;97737.31;5071962;28;20028;-74
2023/10/08 04:02:24;;;;;;;14.32;6.90;;;;;;;7.48;100.00;97732.28;5068265;28;20035;-74
2023/10/08 04:04:52;;;;;;;18.58;7.32;;;;;;;7.50;100.00;97729.56;5057377;28;20062;-74
2023/10/08 04:07:28;;;;;;;18.77;6.85;;;;;;;7.48;100.00;97724.31;5066787;28;20040;-74
2023/10/08 04:12:35;;;;;;;18.13;6.63;;;;;;;7.60;100.00;97723.72;5070156;28;20024;-74
2023/10/08 04:15:07;;;;;;;17.27;8.98;;;;;;;7.63;100.00;97718.25;5071903;28;20031;-75
2023/10/08 04:17:43;;;;;;;18.35;9.13;;;;;;;7.50;100.00;97710.94;5087963;28;20040;-75
2023/10/08 04:23:01;;;;;;;21.60;8.27;;;;;;;7.50;100.00;97716.25;5072143;28;20031;-73
2023/10/08 04:25:28;;;;;;;14.70;7.78;;;;;;;7.58;100.00;97720.28;5072642;28;20088;-73
2023/10/08 04:28:00;;;;;;;18.77;8.73;;;;;;;7.60;100.00;97714.88;5088359;28;20024;-73
2023/10/08 04:30:32;;;;;;;19.77;7.22;;;;;;;7.63;100.00;97720.06;5071328;28;20040;-74
2023/10/08 04:33:11;;;;;;;18.17;7.80;;;;;;;7.55;100.00;97711.56;5071649;28;20111;-73
2023/10/08 04:35:47;;;;;;;16.55;7.78;;;;;;;7.61;100.00;97708.63;5065096;28;20029;-73
2023/10/08 04:38:17;;;;;;;22.42;7.18;;;;;;;7.62;100.00;97702.38;5072398;28;20055;-73
2023/10/08 04:40:48;;;;;;;16.67;7.40;;;;;;;7.58;100.00;97708.78;5071273;28;20021;-74
2023/10/08 04:43:30;;;;;;;14.93;6.90;;;;;;;7.56;100.00;97708.00;5072068;28;20031;-74
2023/10/08 04:45:57;;;;;;;36.90;12.27;;;;;;;7.53;100.00;97714.31;5071380;28;20078;-73
2023/10/08 04:48:27;;;;;;;26.15;9.27;;;;;;;7.49;100.00;97711.88;5070807;28;20036;-75
2023/10/08 04:50:59;;;;;;;15.25;7.78;;;;;;;7.61;100.00;97705.97;5070703;28;20047;-75
2023/10/08 04:53:32;;;;;;;21.73;7.75;;;;;;;7.65;100.00;97702.22;5087146;28;20021;-73
2023/10/08 04:56:05;;;;;;;22.98;7.32;;;;;;;7.69;100.00;97711.78;5071452;28;20089;-74
2023/10/08 04:58:36;;;;;;;21.33;7.63;;;;;;;7.74;100.00;97714.22;5069012;28;20036;-74
2023/10/08 05:01:28;;;;;;;15.63;7.20;;;;;;;7.75;100.00;97713.31;5071050;28;20123;-74
2023/10/08 05:06:50;;;;;;;16.73;7.13;;;;;;;8.18;100.00;97708.44;5072031;28;20040;-75
2023/10/08 05:14:27;;;;;;;19.23;7.10;;;;;;;9.81;100.00;97700.66;5070765;28;20420;-75
2023/10/08 05:17:11;;;;;;;18.50;7.30;;;;;;;11.26;100.00;97699.94;5082224;28;20371;-75
2023/10/08 05:22:18;;;;;;;20.77;6.65;;;;;;;13.21;100.00;97669.94;5070989;28;20032;-77
2023/10/08 05:27:56;;;;;;;19.27;8.57;;;;;;;14.05;100.00;97662.03;5069472;28;20042;-76
2023/10/08 05:31:11;;;;;;;13.70;7.25;;;;;;;15.01;100.00;97655.59;5071932;28;20024;-82
2023/10/08 05:33:25;;;;;;;22.10;8.60;;;;;;;15.38;97.71;97654.38;5078864;28;20056;-73
2023/10/08 05:35:56;;;;;;;15.82;7.20;;;;;;;15.80;92.35;97654.66;5068728;28;20029;-72
2023/10/08 05:38:23;;;;;;;20.37;7.17;;;;;;;16.06;89.32;97656.06;5082250;28;20182;-74
2023/10/08 06:13:16;;;;;;;23.27;8.02;;;;;;;21.02;54.13;97639.53;5069199;28;20062;-72
2023/10/08 06:18:16;;;;;;;16.92;8.57;;;;;;;21.90;52.03;97635.75;5067560;28;20056;-73
2023/10/08 06:20:45;;;;;;;27.23;9.13;;;;;;;22.59;49.71;97626.44;5067514;28;20537;-73
2023/10/08 06:23:17;;;;;;;13.63;8.15;;;;;;;22.76;49.65;97622.75;5067604;28;20110;-74
2023/10/08 06:25:45;;;;;;;17.83;8.63;;;;;;;23.14;47.75;97623.94;5068643;28;20090;-73
2023/10/08 06:28:20;;;;;;;21.95;8.50;;;;;;;23.08;48.10;97624.63;5068189;28;20104;-72
2023/10/08 06:30:55;;;;;;;19.05;8.77;;;;;;;22.72;48.98;97618.66;5084239;28;20034;-73
2023/10/08 06:33:22;;;;;;;18.65;9.60;;;;;;;23.62;46.49;97609.41;5083479;28;20036;-74
2023/10/08 06:36:02;;;;;;;17.83;9.38;;;;;;;23.65;45.75;97606.31;5067624;28;20025;-73
2023/10/08 06:38:30;;;;;;;20.88;9.18;;;;;;;24.05;44.28;97608.91;5066390;28;20081;-74
2023/10/08 06:41:00;;;;;;;14.40;7.35;;;;;;;23.88;44.00;97609.13;5065703;28;20387;-74
2023/10/08 06:43:28;;;;;;;22.67;9.18;;;;;;;24.10;45.16;97611.94;5067151;28;20510;-74
2023/10/08 06:45:58;;;;;;;18.80;9.02;;;;;;;23.98;44.65;97602.44;5083920;28;20020;-73
2023/10/08 06:48:24;;;;;;;20.88;8.82;;;;;;;24.07;44.71;97600.50;5067116;28;20086;-74
2023/10/08 06:50:56;;;;;;;19.50;8.07;;;;;;;24.18;44.09;97609.19;5067188;28;20439;-74
2023/10/08 06:53:22;;;;;;;17.00;9.15;;;;;;;24.73;43.01;97610.94;5067781;28;20472;-74
2023/10/08 06:55:54;;;;;;;22.30;11.30;;;;;;;24.59;43.40;97600.75;5067897;28;20155;-74
2023/10/08 06:58:20;;;;;;;23.92;7.50;;;;;;;24.00;44.30;97597.63;5067277;28;20036;-75
2023/10/08 07:00:48;;;;;;;23.00;11.15;;;;;;;24.18;44.96;97606.47;5068341;28;20047;-73
2023/10/08 07:03:15;;;;;;;24.38;9.80;;;;;;;23.80;45.52;97595.50;5051025;28;20033;-74
2023/10/08 07:05:53;;;;;;;24.17;10.50;;;;;;;23.10;46.48;97607.03;5083544;28;20035;-73
2023/10/08 07:08:23;;;;;;;34.25;11.02;;;;;;;23.71;46.46;97589.22;5067095;28;20463;-73
2023/10/08 07:10:49;;;;;;;26.92;11.10;;;;;;;24.19;44.80;97593.66;5066956;28;20029;-73
2023/10/08 07:13:17;;;;;;;21.02;10.00;;;;;;;23.73;44.90;97576.22;5069113;28;20035;-73
2023/10/08 07:15:44;;;;;;;20.60;9.40;;;;;;;24.55;43.75;97566.63;5070356;28;20038;-73
2023/10/08 07:18:12;;;;;;;23.30;9.68;;;;;;;24.66;43.40;97574.38;5070303;28;20052;-72
2023/10/08 07:20:45;;;;;;;26.00;9.90;;;;;;;24.85;43.78;97573.94;5070588;28;20119;-73
2023/10/08 07:23:29;;;;;;;27.00;11.07;;;;;;;24.61;43.64;97574.09;5085475;28;20043;-74
2023/10/08 07:26:11;;;;;;;32.10;11.48;;;;;;;25.53;42.49;97570.22;5056458;28;20036;-73
2023/10/08 07:28:41;;;;;;;24.15;8.88;;;;;;;26.07;41.56;97566.13;5070341;28;20058;-72
2023/10/08 07:31:21;;;;;;;22.95;13.70;;;;;;;26.18;40.79;97573.88;5070571;28;20036;-73
2023/10/08 07:33:56;;;;;;;28.45;10.02;;;;;;;26.50;40.53;97552.53;5070660;28;20035;-74
2023/10/08 07:36:23;;;;;;;30.02;9.18;;;;;;;26.59;39.96;97548.59;5070385;28;20535;-73
2023/10/08 07:38:49;;;;;;;23.23;9.82;;;;;;;26.67;39.24;97551.25;5070274;28;20056;-74
2023/10/08 07:41:14;;;;;;;19.75;8.35;;;;;;;26.33;40.26;97547.28;5070329;28;20048;-74
2023/10/08 07:43:44;;;;;;;17.95;8.30;;;;;;;27.86;38.37;97540.19;5087048;28;20028;-74
2023/10/08 07:46:10;;;;;;;17.42;8.95;;;;;;;28.11;37.06;97541.41;5071573;28;20028;-74
2023/10/08 07:48:42;;;;;;;13.07;6.07;;;;;;;28.93;35.05;97527.41;5069851;28;20031;-74
2023/10/08 07:51:07;;;;;;;;;;;;;;;28.79;35.00;97511.97;5071126;28;20035;-73
2023/10/08 07:53:38;;;;;;;12.27;5.82;;;;;;;29.54;34.65;97503.25;5070525;28;19916;-74
2023/10/08 07:56:08;;;;;;;9.02;5.32;;;;;;;29.38;34.27;97509.19;5048514;28;20071;-75
2023/10/08 07:58:37;;;;;;;10.98;5.93;;;;;;;29.43;34.20;97488.22;5070383;28;20028;-72
2023/10/08 08:01:06;;;;;;;13.50;8.02;;;;;;;28.57;35.21;97502.16;5069729;28;20484;-74
2023/10/08 08:03:36;;;;;;;15.98;7.38;;;;;;;28.36;35.63;97497.66;5069959;28;20090;-73
2023/10/08 08:06:06;;;;;;;15.05;8.52;;;;;;;29.28;34.99;97482.09;5081706;28;20032;-73
2023/10/08 08:08:36;;;;;;;23.00;8.40;;;;;;;29.17;34.79;97488.22;5070128;28;20565;-73
2023/10/08 08:11:17;;;;;;;14.05;7.80;;;;;;;30.27;33.42;97479.84;5070422;28;20104;-74
2023/10/08 08:13:44;;;;;;;18.85;9.02;;;;;;;30.26;33.16;97478.19;5069030;28;20032;-74
2023/10/08 08:16:17;;;;;;;18.02;7.22;;;;;;;30.13;33.30;97472.72;5071385;28;20109;-73
2023/10/08 08:18:46;;;;;;;15.55;7.30;;;;;;;30.19;33.58;97487.53;5070246;28;20044;-74
2023/10/08 08:21:19;;;;;;;17.42;7.53;;;;;;;31.13;32.37;97475.47;5069811;28;20029;-73
2023/10/08 08:23:48;;;;;;;14.18;7.30;;;;;;;31.90;31.45;97481.53;5086243;28;20028;-73
2023/10/08 08:26:28;;;;;;;13.57;6.70;;;;;;;32.36;31.17;97475.41;5086608;28;20101;-73
2023/10/08 08:28:57;;;;;;;18.48;7.15;;;;;;;33.09;30.15;97453.84;5069841;28;20028;-74
2023/10/08 08:31:23;;;;;;;14.07;7.18;;;;;;;33.91;28.60;97447.19;5069986;28;20036;-73
2023/10/08 08:33:52;;;;;;;15.90;7.13;;;;;;;33.87;28.92;97451.53;5070092;28;20103;-73
2023/10/08 08:36:22;;;;;;;19.85;7.60;;;;;;;33.80;28.75;97442.50;5068972;28;20022;-72
2023/10/08 08:38:47;;;;;;;16.00;6.40;;;;;;;33.85;29.06;97439.81;5068804;28;20399;-72
2023/10/08 08:41:17;;;;;;;21.60;7.82;;;;;;;34.19;28.15;97435.28;5085268;28;20035;-73
2023/10/08 08:43:44;;;;;;;12.10;7.22;;;;;;;32.21;37.49;97475.81;5070350;28;20115;-75
2023/10/08 08:46:12;;;;;;;20.55;7.18;;;;;;;32.64;36.97;97468.19;5069122;28;20036;-72
2023/10/08 08:48:44;;;;;;;16.60;7.07;;;;;;;33.09;38.75;97476.88;5068889;28;20553;-72
2023/10/08 08:51:10;;;;;;;19.90;8.18;;;;;;;33.21;38.98;97474.13;5068823;28;20032;-74
2023/10/08 08:53:39;;;;;;;18.15;7.72;;;;;;;33.89;37.11;97467.94;5069843;28;20028;-75
2023/10/08 08:56:09;;;;;;;14.68;8.02;;;;;;;34.66;38.78;97475.72;5049102;28;20487;-74
2023/10/08 08:58:35;;;;;;;16.92;6.75;;;;;;;34.15;33.89;97448.81;5052102;28;20072;-75
2023/10/08 09:01:03;;;;;;;96.90;12.93;;;;;;;34.57;36.82;97468.00;5069548;28;20074;-73
2023/10/08 09:03:32;;;;;;;20.30;8.88;;;;;;;35.30;35.13;97452.09;5052288;28;20032;-73
2023/10/08 09:05:59;;;;;;;21.10;7.82;;;;;;;35.46;35.63;97455.97;5068336;28;20028;-73
2023/10/08 09:08:36;;;;;;;12.85;6.45;;;;;;;35.55;33.85;97448.84;5068117;28;20060;-73
2023/10/08 09:11:04;;;;;;;9.77;4.47;;;;;;;35.03;30.37;97427.97;5085171;28;20484;-73
2023/10/08 09:13:32;;;;;;;8.55;4.03;;;;;;;35.13;28.56;97414.25;5068407;28;20051;-73
2023/10/08 09:16:11;;;;;;;12.00;5.03;;;;;;;35.23;27.73;97417.19;5068312;28;20032;-73
2023/10/08 09:18:37;;;;;;;12.25;5.97;;;;;;;36.21;28.05;97419.97;5068128;28;20040;-74
2023/10/08 09:21:19;;;;;;;10.73;3.72;;;;;;;36.70;24.40;97397.69;5067512;28;20039;-73
2023/10/08 09:23:50;;;;;;;10.18;4.70;;;;;;;37.15;25.38;97402.81;5066576;28;20112;-74
2023/10/08 09:26:22;;;;;;;11.75;4.30;;;;;;;36.61;24.16;97391.72;5067833;28;20142;-73
2023/10/08 09:28:49;;;;;;;7.63;4.65;;;;;;;36.31;24.89;97392.22;5052857;28;20039;-74
2023/10/08 09:31:17;;;;;;;17.33;8.05;;;;;;;37.01;24.25;97394.06;5070060;28;20024;-73
2023/10/08 09:33:43;;;;;;;7.80;4.05;;;;;;;37.15;23.97;97386.09;5086708;28;20480;-74
2023/10/08 09:36:15;;;;;;;6.82;3.65;;;;;;;37.26;23.66;97377.50;5068778;28;20045;-74
2023/10/08 09:38:43;;;;;;;6.93;3.90;;;;;;;37.12;23.59;97369.88;5065238;28;20043;-73
2023/10/08 09:41:09;;;;;;;16.17;5.13;;;;;;;37.39;23.73;97371.44;5070880;28;20036;-74
2023/10/08 09:43:35;;;;;;;12.52;4.72;;;;;;;37.87;23.09;97367.53;5069644;28;20108;-73
2023/10/08 09:46:21;;;;;;;9.20;4.45;;;;;;;38.50;22.45;97359.94;5070875;28;20028;-74
2023/10/08 09:48:52;;;;;;;11.60;4.28;;;;;;;38.95;22.07;97357.19;5069901;28;20040;-74
2023/10/08 09:51:18;;;;;;;9.35;4.75;;;;;;;38.60;22.35;97353.53;5069514;28;20020;-73
2023/10/08 09:54:10;;;;;;;8.20;5.03;;;;;;;38.62;22.33;97351.28;5070940;28;20028;-73
2023/10/08 09:56:36;;;;;;;7.03;4.00;;;;;;;36.69;23.32;97343.84;5070875;28;20484;-74
2023/10/08 09:59:02;;;;;;;7.57;3.95;;;;;;;35.06;24.76;97355.16;5069662;28;20438;-74
2023/10/08 10:01:28;;;;;;;9.45;4.72;;;;;;;33.21;26.30;97354.84;5069514;28;20032;-74
2023/10/08 10:03:55;;;;;;;8.93;3.78;;;;;;;32.08;27.70;97356.94;5069626;28;20028;-74
2023/10/08 10:06:20;;;;;;;9.63;4.10;;;;;;;31.56;28.19;97361.25;5070770;28;20031;-74
2023/10/08 10:08:48;;;;;;;5.70;3.17;;;;;;;32.30;27.54;97355.34;5069445;28;20028;-73
2023/10/08 10:11:15;;;;;;;10.68;5.80;;;;;;;33.00;26.79;97345.22;5086242;28;20131;-74
2023/10/08 10:13:48;;;;;;;58.72;6.75;;;;;;;33.58;26.66;97342.38;5069345;28;20016;-75
2023/10/08 10:16:22;;;;;;;18.73;3.30;;;;;;;34.25;25.74;97329.56;5069392;28;20031;-74
2023/10/08 10:18:49;;;;;;;7.80;3.50;;;;;;;33.61;26.31;97335.50;5070552;28;20364;-74
2023/10/08 10:21:15;;;;;;;9.18;4.15;;;;;;;33.20;27.23;97339.28;5069317;28;20181;-74
2023/10/08 10:23:50;;;;;;;11.85;4.03;;;;;;;32.54;27.35;97332.16;5070305;28;20032;-73
2023/10/08 10:26:26;;;;;;;9.13;3.35;;;;;;;33.63;26.39;97338.88;5070787;28;20017;-74
2023/10/08 10:29:10;;;;;;;7.28;3.28;;;;;;;32.58;27.21;97335.28;5070779;28;20028;-74
2023/10/08 10:31:46;;;;;;;9.10;3.17;;;;;;;33.22;26.58;97314.94;5085824;28;20045;-74
2023/10/08 10:34:18;;;;;;;7.20;2.70;;;;;;;33.56;26.14;97310.41;5069486;28;20020;-73
2023/10/08 10:36:48;;;;;;;;;;;;;;;32.67;27.28;97306.16;5069589;28;20040;-73
2023/10/08 10:39:16;;;;;;;5.80;2.95;;;;;;;31.61;28.33;97314.38;5069520;28;20054;-73
2023/10/08 10:41:44;;;;;;;8.23;3.40;;;;;;;31.58;28.22;97310.16;5052987;28;20041;-73
2023/10/08 10:44:13;;;;;;;10.75;3.97;;;;;;;31.34;28.39;97294.47;5069414;28;20107;-73
2023/10/08 10:46:42;;;;;;;10.60;4.40;;;;;;;30.61;29.20;97283.34;5068927;28;20040;-74
2023/10/08 10:51:52;;;;;;;14.32;6.15;;;;;;;34.11;26.72;97280.16;5074801;28;20037;-74
2023/10/08 10:54:23;;;;;;;34.17;6.25;;;;;;;35.94;25.17;97276.16;5089808;28;20055;-74
2023/10/08 10:57:05;;;;;;;7.73;3.53;;;;;;;36.94;24.10;97273.47;5073792;28;20123;-74
2023/10/08 10:59:37;;;;;;;5.60;3.17;;;;;;;37.49;23.67;97270.19;5073277;28;20273;-73
2023/10/08 11:02:09;;;;;;;9.13;3.63;;;;;;;37.52;23.77;97266.84;5090088;28;20436;-74
2023/10/08 11:04:47;;;;;;;10.10;3.95;;;;;;;37.38;23.71;97252.50;5089850;28;20067;-74
2023/10/08 11:07:23;;;;;;;5.18;2.67;;;;;;;38.22;23.14;97248.59;5073293;28;20476;-74
2023/10/08 11:09:51;;;;;;;6.45;2.97;;;;;;;39.63;21.96;97251.19;5072928;28;20102;-74
2023/10/08 11:12:32;;;;;;;8.98;3.20;;;;;;;39.88;21.51;97230.63;5073049;28;20122;-74
2023/10/08 11:14:58;;;;;;;7.50;3.65;;;;;;;39.39;21.89;97236.16;5072985;28;20028;-74
2023/10/08 11:17:26;;;;;;;8.70;3.95;;;;;;;37.88;22.94;97221.13;5072829;28;20194;-74
2023/10/08 11:19:52;;;;;;;7.57;3.42;;;;;;;35.53;24.76;97228.38;5089375;28;20040;-72
2023/10/08 11:22:22;;;;;;;6.57;3.45;;;;;;;34.61;25.98;97232.97;5072839;28;20035;-73
2023/10/08 11:24:48;;;;;;;9.43;3.20;;;;;;;33.52;26.71;97232.34;5072625;28;20132;-74
2023/10/08 11:27:17;;;;;;;9.43;3.03;;;;;;;32.41;27.90;97231.78;5072841;28;20036;-74
2023/10/08 11:29:44;;;;;;;6.53;3.42;;;;;;;32.34;28.71;97240.22;5072732;28;20037;-74
2023/10/08 11:32:12;;;;;;;11.93;3.20;;;;;;;31.95;29.60;97235.31;5089332;28;20116;-73
2023/10/08 11:34:39;;;;;;;12.25;3.15;;;;;;;31.67;29.68;97236.81;5072748;28;20036;-73
2023/10/08 11:37:19;;;;;;;12.27;3.42;;;;;;;31.44;29.81;97242.22;5073462;28;20031;-72
2023/10/08 11:39:46;;;;;;;14.57;4.07;;;;;;;31.42;30.91;97246.28;5057591;28;20476;-72
2023/10/08 11:44:55;;;;;;;12.63;3.47;;;;;;;31.37;31.21;97238.72;5073514;28;20511;-73
2023/10/08 11:47:21;;;;;;;12.43;3.13;;;;;;;31.19;31.50;97248.97;5072462;28;20029;-73
2023/10/08 11:49:50;;;;;;;8.63;2.67;;;;;;;30.66;32.23;97249.53;5072441;28;20039;-72
2023/10/08 11:52:16;;;;;;;36.45;4.28;;;;;;;30.32;32.16;97250.06;5064179;28;20020;-73
2023/10/08 11:54:42;;;;;;;15.20;2.70;;;;;;;30.79;32.28;97245.78;5073490;28;20032;-73
2023/10/08 11:57:09;;;;;;;19.15;2.38;;;;;;;30.79;31.93;97232.84;5071988;28;20060;-73
2023/10/08 11:59:39;;;;;;;20.30;3.13;;;;;;;30.45;32.93;97244.47;5071218;28;20413;-73
2023/10/08 12:02:06;;;;;;;13.20;2.70;;;;;;;30.20;33.07;97232.56;5071955;28;20519;-73
2023/10/08 12:04:31;;;;;;;19.30;5.75;;;;;;;30.16;34.28;97245.97;5072134;28;20113;-73
2023/10/08 12:07:01;;;;;;;8.73;2.42;;;;;;;30.47;33.48;97245.91;5071940;28;20090;-74
2023/10/08 12:09:27;;;;;;;22.02;3.15;;;;;;;30.70;33.10;97238.88;5072192;28;20117;-74
2023/10/08 12:11:53;;;;;;;10.45;2.45;;;;;;;30.98;32.74;97242.81;5073114;28;20547;-70
2023/10/08 12:14:19;;;;;;;34.58;3.47;;;;;;;30.86;32.95;97238.25;5080442;28;20032;-75
2023/10/08 12:16:45;;;;;;;17.23;2.78;;;;;;;30.66;32.90;97234.88;5070138;28;20051;-73
2023/10/08 12:19:17;;;;;;;19.30;3.40;;;;;;;30.25;33.33;97233.56;5070514;28;20052;-74
2023/10/08 12:21:47;;;;;;;23.73;3.05;;;;;;;29.58;34.20;97243.41;5070594;28;20484;-72
2023/10/08 12:24:13;;;;;;;28.27;3.58;;;;;;;29.45;34.53;97229.69;5070316;28;20032;-73
2023/10/08 12:26:45;;;;;;;19.15;3.10;;;;;;;29.18;34.75;97238.28;5068774;28;20020;-74
2023/10/08 12:29:14;;;;;;;22.15;3.35;;;;;;;29.94;34.12;97230.84;5069812;28;20536;-74
2023/10/08 12:31:40;;;;;;;23.15;7.10;;;;;;;30.25;33.41;97233.56;5069491;28;20036;-73
2023/10/08 12:34:06;;;;;;;25.63;4.88;;;;;;;29.49;33.99;97224.59;5083059;28;20033;-74
2023/10/08 12:36:36;;;;;;;41.50;13.13;;;;;;;29.18;35.15;97230.03;5069223;28;20326;-73
2023/10/08 12:39:14;;;;;;;16.15;3.70;;;;;;;28.54;35.39;97222.63;5068536;28;20020;-73
2023/10/08 12:41:43;;;;;;;18.73;3.65;;;;;;;28.41;35.84;97218.00;5062880;28;20108;-73
2023/10/08 12:44:09;;;;;;;26.55;3.42;;;;;;;28.01;36.45;97232.81;5045034;28;20035;-75
2023/10/08 12:46:35;;;;;;;19.42;3.72;;;;;;;27.74;36.92;97225.63;5063885;28;20037;-75